Time;durP1;ratioP1;P1;durP2;ratioP2;P2;SDS_P1;SDS_P2;PMS_P1;PMS_P2;Temp;Humidity;BMP_temperature;BMP_pressure;BME280_temperature;BME280_humidity;BME280_pressure;Samples;Min_cycle;Max_cycle;Signal;HPM_P1;HPM_P2
2021/07/31 00:01:02;;;;;;;1.67;1.30;;;21.00;98.00;;;;;;5091880;28;20888;-68
2021/07/31 00:03:29;;;;;;;1.60;1.60;;;20.90;98.00;;;;;;5091678;28;20451;-67
2021/07/31 00:05:56;;;;;;;1.80;1.70;;;20.70;98.00;;;;;;5091556;28;20486;-68
2021/07/31 00:08:25;;;;;;;1.47;1.40;;;20.60;98.00;;;;;;5091579;28;21051;-68
2021/07/31 00:10:53;;;;;;;2.10;1.70;;;20.60;98.00;;;;;;5073540;28;21176;-66
2021/07/31 00:13:20;;;;;;;1.67;1.33;;;20.50;98.00;;;;;;5091393;28;20484;-65
2021/07/31 00:15:47;;;;;;;2.37;2.03;;;20.50;98.00;;;;;;5091600;28;21008;-67
2021/07/31 00:18:15;;;;;;;2.13;1.60;;;20.40;98.00;;;;;;5091528;28;20460;-68
2021/07/31 00:20:42;;;;;;;1.90;1.70;;;20.50;98.00;;;;;;5091299;28;20522;-68
2021/07/31 00:23:09;;;;;;;1.40;1.33;;;20.50;98.00;;;;;;5091338;28;20448;-66
2021/07/31 00:25:37;;;;;;;1.87;1.50;;;20.60;98.00;;;;;;5091229;28;20476;-67
2021/07/31 00:28:07;;;;;;;1.53;1.40;;;20.50;98.00;;;;;;5091185;28;20480;-68
2021/07/31 00:30:34;;;;;;;2.30;1.77;;;20.40;98.00;;;;;;5091437;28;20458;-67
2021/07/31 00:33:01;;;;;;;1.50;1.50;;;20.30;98.00;;;;;;5091381;28;20468;-66
2021/07/31 00:35:28;;;;;;;1.90;1.57;;;20.30;98.00;;;;;;5091267;28;20775;-67
2021/07/31 00:37:55;;;;;;;2.00;1.37;;;20.30;98.00;;;;;;5091402;28;20541;-67
2021/07/31 00:40:24;;;;;;;1.73;1.40;;;20.40;98.00;;;;;;5091192;28;20509;-66
2021/07/31 00:42:51;;;;;;;1.70;1.50;;;20.40;98.00;;;;;;5091148;28;20510;-66
2021/07/31 00:45:19;;;;;;;1.43;1.20;;;20.40;98.00;;;;;;5091153;28;20483;-67
2021/07/31 00:47:49;;;;;;;1.70;1.67;;;20.70;98.00;;;;;;5091437;28;20455;-68
2021/07/31 00:50:16;;;;;;;1.97;1.40;;;20.80;98.00;;;;;;5091358;28;20463;-66
2021/07/31 00:52:46;;;;;;;2.37;1.70;;;20.90;98.00;;;;;;5091288;28;20459;-68
2021/07/31 00:55:14;;;;;;;2.77;1.90;;;20.70;98.00;;;;;;5091143;28;20930;-67
2021/07/31 00:57:41;;;;;;;1.50;1.50;;;20.60;98.00;;;;;;5091025;28;20501;-66
2021/07/31 01:00:09;;;;;;;1.30;1.20;;;20.60;98.00;;;;;;5091058;28;20868;-67
2021/07/31 01:02:39;;;;;;;1.80;1.57;;;20.60;98.00;;;;;;5092946;28;20488;-66
2021/07/31 01:05:07;;;;;;;1.27;1.27;;;20.50;98.00;;;;;;5095419;28;20531;-67
2021/07/31 01:07:35;;;;;;;1.73;1.47;;;20.40;98.00;;;;;;5095124;28;20462;-66
2021/07/31 01:10:02;;;;;;;2.77;1.40;;;20.50;98.00;;;;;;5095121;28;20487;-67
2021/07/31 01:12:31;;;;;;;1.43;1.33;;;20.50;98.00;;;;;;5094941;28;21195;-67
2021/07/31 01:14:58;;;;;;;1.50;1.40;;;20.40;98.00;;;;;;5095060;28;20479;-67
2021/07/31 01:17:25;;;;;;;2.47;1.40;;;20.30;98.00;;;;;;5095008;28;20758;-67
2021/07/31 01:19:53;;;;;;;1.50;1.30;;;20.30;98.00;;;;;;5094619;28;20470;-66
2021/07/31 01:22:21;;;;;;;1.50;1.40;;;20.20;98.00;;;;;;5094796;28;20448;-68
2021/07/31 01:24:51;;;;;;;1.50;1.30;;;20.30;98.00;;;;;;5094698;28;20484;-67
2021/07/31 01:27:19;;;;;;;1.40;1.10;;;20.50;98.00;;;;;;5077139;28;21014;-66
2021/07/31 01:29:47;;;;;;;1.20;1.20;;;20.40;98.00;;;;;;5094657;28;20456;-67
2021/07/31 01:32:15;;;;;;;2.90;1.83;;;20.30;98.00;;;;;;5094607;28;20975;-69
2021/07/31 01:34:45;;;;;;;1.93;1.83;;;20.20;98.00;;;;;;5094512;28;20517;-66
2021/07/31 01:37:12;;;;;;;1.90;1.60;;;20.20;98.00;;;;;;5094578;28;20495;-68
2021/07/31 01:39:40;;;;;;;1.20;1.10;;;20.20;98.00;;;;;;5094375;28;20505;-67
2021/07/31 01:42:08;;;;;;;1.23;1.20;;;20.20;98.00;;;;;;5094564;28;20483;-66
2021/07/31 01:44:35;;;;;;;1.30;1.20;;;20.10;98.00;;;;;;5094230;28;20444;-66
2021/07/31 01:47:02;;;;;;;1.97;1.30;;;20.10;98.00;;;;;;5094320;28;20888;-66
2021/07/31 01:49:29;;;;;;;1.50;1.20;;;20.10;98.00;;;;;;5094303;28;20451;-67
2021/07/31 01:51:56;;;;;;;1.30;1.20;;;20.20;98.00;;;;;;5094237;28;20459;-66
2021/07/31 01:54:22;;;;;;;1.80;1.40;;;20.30;98.00;;;;;;5094146;28;20448;-66
2021/07/31 01:56:52;;;;;;;1.33;1.33;;;20.10;98.00;;;;;;5094240;28;20559;-66
2021/07/31 01:59:19;;;;;;;1.40;1.30;;;20.10;98.00;;;;;;5093984;28;20505;-67
2021/07/31 02:01:46;;;;;;;1.90;1.37;;;20.20;98.00;;;;;;5094270;28;20525;-67
2021/07/31 02:04:13;;;;;;;1.30;1.20;;;20.30;98.00;;;;;;5094013;28;20883;-67
2021/07/31 02:06:41;;;;;;;1.60;1.33;;;20.20;98.00;;;;;;5094217;28;20537;-67
2021/07/31 02:09:08;;;;;;;1.40;1.30;;;20.20;98.00;;;;;;5094285;28;20498;-67
2021/07/31 02:11:35;;;;;;;2.03;1.30;;;20.20;98.00;;;;;;5094040;28;20464;-67
2021/07/31 02:14:03;;;;;;;1.30;1.20;;;20.20;98.00;;;;;;5093984;28;21022;-67
2021/07/31 02:16:30;;;;;;;1.30;1.20;;;20.10;98.00;;;;;;5093922;28;20513;-66
2021/07/31 02:18:57;;;;;;;1.60;1.40;;;20.10;98.00;;;;;;5094079;28;20511;-66
2021/07/31 02:21:24;;;;;;;1.20;1.10;;;20.00;98.00;;;;;;5093722;28;20507;-68
2021/07/31 02:23:51;;;;;;;1.33;1.10;;;20.10;98.00;;;;;;5093604;28;20541;-65
2021/07/31 02:26:18;;;;;;;2.07;1.10;;;20.10;98.00;;;;;;5093472;28;21083;-68
2021/07/31 02:28:45;;;;;;;1.30;1.10;;;20.10;98.00;;;;;;5093493;28;20517;-66
2021/07/31 02:31:14;;;;;;;1.70;1.30;;;20.00;98.00;;;;;;5093456;28;20455;-67
2021/07/31 02:33:43;;;;;;;2.77;1.60;;;20.00;98.00;;;;;;5093526;28;20499;-68
2021/07/31 02:36:12;;;;;;;1.50;1.23;;;19.90;98.00;;;;;;5093571;28;21002;-67
2021/07/31 02:38:41;;;;;;;1.70;1.20;;;19.80;98.00;;;;;;5093257;28;20837;-66
2021/07/31 02:41:08;;;;;;;1.53;1.20;;;19.80;98.00;;;;;;5093188;28;20464;-65
2021/07/31 02:43:35;;;;;;;2.13;1.10;;;19.70;98.00;;;;;;5093306;28;20459;-67
2021/07/31 02:46:05;;;;;;;1.30;1.20;;;19.70;98.00;;;;;;5093144;28;20479;-66
2021/07/31 02:48:35;;;;;;;2.37;1.30;;;19.70;98.00;;;;;;5093162;28;21532;-68
2021/07/31 02:51:04;;;;;;;1.70;1.47;;;19.50;98.00;;;;;;5093344;28;20456;-66
2021/07/31 02:53:31;;;;;;;1.30;1.20;;;19.50;98.00;;;;;;5092958;28;20572;-67
2021/07/31 02:56:00;;;;;;;1.20;1.10;;;19.50;98.00;;;;;;5092594;28;20523;-66
2021/07/31 02:58:27;;;;;;;1.50;1.43;;;19.50;98.00;;;;;;5092848;28;20485;-67
2021/07/31 03:00:54;;;;;;;1.20;1.10;;;19.60;98.00;;;;;;5092960;28;20995;-66
2021/07/31 03:03:21;;;;;;;1.20;1.20;;;19.60;98.00;;;;;;5092830;28;20452;-67
2021/07/31 03:05:57;;;;;;;1.30;1.20;;;19.50;98.00;;;;;;5074980;28;21040;-67
2021/07/31 03:08:27;;;;;;;1.20;1.10;;;19.40;98.00;;;;;;5092779;28;20958;-67
2021/07/31 03:10:55;;;;;;;4.00;1.73;;;19.40;98.00;;;;;;5092914;28;20861;-66
2021/07/31 03:13:22;;;;;;;1.30;1.13;;;19.20;98.00;;;;;;5092713;28;20557;-69
2021/07/31 03:15:50;;;;;;;1.33;1.20;;;19.10;98.00;;;;;;5092806;28;20464;-67
2021/07/31 03:18:17;;;;;;;1.20;1.20;;;19.00;98.00;;;;;;5092744;28;20491;-66
2021/07/31 03:20:48;;;;;;;1.40;1.37;;;18.90;98.00;;;;;;5092493;28;20545;-67
2021/07/31 03:23:18;;;;;;;1.40;1.20;;;18.80;98.00;;;;;;5092739;28;20456;-66
2021/07/31 03:25:45;;;;;;;1.20;1.20;;;18.70;98.00;;;;;;5092096;28;20447;-66
2021/07/31 03:28:13;;;;;;;1.40;1.30;;;18.70;98.00;;;;;;5092736;28;20515;-70
2021/07/31 03:30:41;;;;;;;1.83;1.40;;;18.60;98.00;;;;;;5092646;28;20463;-67
2021/07/31 03:33:08;;;;;;;1.20;1.03;;;18.70;98.00;;;;;;5092341;28;20635;-68
2021/07/31 03:35:35;;;;;;;1.27;1.13;;;18.70;98.00;;;;;;5092357;28;20464;-67
2021/07/31 03:38:04;;;;;;;1.20;1.10;;;18.60;98.00;;;;;;5092098;28;20456;-68
2021/07/31 03:40:33;;;;;;;3.67;1.50;;;18.60;98.00;;;;;;5092196;28;20509;-66
2021/07/31 03:43:00;;;;;;;1.20;1.17;;;18.50;98.00;;;;;;5092218;28;20485;-66
2021/07/31 03:45:27;;;;;;;1.20;1.13;;;18.50;98.00;;;;;;5091940;28;20456;-66
2021/07/31 03:47:55;;;;;;;1.20;1.10;;;18.60;98.00;;;;;;5091985;28;20563;-66
2021/07/31 03:50:22;;;;;;;1.30;1.13;;;18.50;98.00;;;;;;5091989;28;20938;-67
2021/07/31 03:52:49;;;;;;;1.30;1.27;;;18.50;98.00;;;;;;5091809;28;20468;-66
2021/07/31 03:55:16;;;;;;;1.30;1.20;;;18.40;98.00;;;;;;5092054;28;20487;-67
2021/07/31 03:57:45;;;;;;;1.30;1.20;;;18.40;98.00;;;;;;5074134;28;20505;-66
2021/07/31 04:00:13;;;;;;;1.50;1.20;;;18.30;98.00;;;;;;5091738;28;20460;-67
2021/07/31 04:02:40;;;;;;;1.20;1.10;;;18.30;98.00;;;;;;5091490;28;20462;-67
2021/07/31 04:05:08;;;;;;;1.57;1.20;;;18.10;98.00;;;;;;5091794;28;20459;-66
2021/07/31 04:07:35;;;;;;;1.20;1.10;;;18.20;98.00;;;;;;5091343;28;20498;-67
2021/07/31 04:10:02;;;;;;;1.30;1.10;;;18.10;98.00;;;;;;5091763;28;20528;-67
2021/07/31 04:12:31;;;;;;;1.60;1.27;;;17.90;98.00;;;;;;5091649;28;20468;-68
2021/07/31 04:14:59;;;;;;;1.20;1.10;;;17.80;98.00;;;;;;5091528;28;20795;-66
2021/07/31 04:17:26;;;;;;;1.50;1.30;;;17.60;98.00;;;;;;5091614;28;20809;-66
2021/07/31 04:19:53;;;;;;;1.87;1.50;;;17.50;98.00;;;;;;5091540;28;20471;-66
2021/07/31 04:22:21;;;;;;;1.20;1.10;;;17.30;98.00;;;;;;5091496;28;20447;-69
2021/07/31 04:24:47;;;;;;;1.20;1.10;;;17.20;98.00;;;;;;5091353;28;20456;-66
2021/07/31 04:27:17;;;;;;;1.20;1.10;;;17.20;98.00;;;;;;5091418;28;20484;-67
2021/07/31 04:29:44;;;;;;;1.30;1.20;;;17.20;98.00;;;;;;5091267;28;20466;-67
2021/07/31 04:32:13;;;;;;;1.50;1.20;;;17.30;98.00;;;;;;5091387;28;20556;-67
2021/07/31 04:34:40;;;;;;;1.23;1.20;;;17.20;98.00;;;;;;5091238;28;20482;-66
2021/07/31 04:37:09;;;;;;;1.47;1.17;;;17.10;98.00;;;;;;5090486;28;20483;-67
2021/07/31 04:39:37;;;;;;;1.87;1.40;;;17.10;98.00;;;;;;5090950;28;20464;-66
2021/07/31 04:42:05;;;;;;;1.50;1.10;;;17.10;98.00;;;;;;5091233;28;20456;-68
2021/07/31 04:44:32;;;;;;;1.20;1.10;;;17.00;98.00;;;;;;5091297;28;20455;-65
2021/07/31 04:46:59;;;;;;;1.30;1.20;;;17.10;98.00;;;;;;5091390;28;20533;-67
2021/07/31 04:49:27;;;;;;;1.20;1.10;;;17.00;98.00;;;;;;5091120;28;20460;-67
2021/07/31 04:51:54;;;;;;;1.30;1.10;;;16.90;98.00;;;;;;5091136;28;20600;-66
2021/07/31 04:54:21;;;;;;;1.60;1.10;;;16.80;98.00;;;;;;5091211;28;20802;-66
2021/07/31 04:56:48;;;;;;;1.30;1.13;;;16.80;98.00;;;;;;5091202;28;20452;-66
2021/07/31 04:59:15;;;;;;;1.20;1.20;;;16.80;98.00;;;;;;5091020;28;20962;-66
2021/07/31 05:01:42;;;;;;;1.70;1.40;;;16.80;98.00;;;;;;5091108;28;20969;-67
2021/07/31 05:04:09;;;;;;;1.20;1.10;;;16.80;98.00;;;;;;5090906;28;20487;-67
2021/07/31 05:06:38;;;;;;;1.33;1.10;;;16.80;98.00;;;;;;5090896;28;20491;-65
2021/07/31 05:09:06;;;;;;;1.20;1.00;;;16.90;98.00;;;;;;5090874;28;20529;-66
2021/07/31 05:11:33;;;;;;;1.30;1.30;;;17.00;98.00;;;;;;5090930;28;20478;-67
2021/07/31 05:14:00;;;;;;;1.20;1.10;;;17.00;98.00;;;;;;5090902;28;20494;-66
2021/07/31 05:16:28;;;;;;;1.30;1.20;;;17.10;98.00;;;;;;5090988;28;20517;-67
2021/07/31 05:18:55;;;;;;;1.27;1.20;;;17.20;98.00;;;;;;5090626;28;20464;-67
2021/07/31 05:21:23;;;;;;;1.20;1.10;;;17.10;98.00;;;;;;5090800;28;21016;-66
2021/07/31 05:23:51;;;;;;;1.57;1.20;;;17.00;98.00;;;;;;5090676;28;20452;-66
2021/07/31 05:26:18;;;;;;;1.43;1.43;;;16.90;98.00;;;;;;5090810;28;20536;-66
2021/07/31 05:28:45;;;;;;;1.20;1.10;;;17.10;98.00;;;;;;5090498;28;20515;-66
2021/07/31 05:31:20;;;;;;;2.00;1.73;;;17.10;98.00;;;;;;5090721;28;20521;-67
2021/07/31 05:33:47;;;;;;;1.80;1.10;;;17.20;98.00;;;;;;5090543;28;20960;-66
2021/07/31 05:36:14;;;;;;;2.03;1.30;;;17.30;98.00;;;;;;5090733;28;20518;-66
2021/07/31 05:38:41;;;;;;;2.40;1.20;;;17.30;98.00;;;;;;5090598;28;20460;-66
2021/07/31 05:41:15;;;;;;;1.20;1.10;;;17.50;98.00;;;;;;5072745;28;20452;-65
2021/07/31 05:43:42;;;;;;;1.33;1.23;;;17.50;98.00;;;;;;5089982;28;20490;-66
2021/07/31 05:46:09;;;;;;;1.30;1.10;;;17.60;98.00;;;;;;5090562;28;20484;-67
2021/07/31 05:48:37;;;;;;;1.20;1.10;;;17.70;98.00;;;;;;5092438;28;20483;-67
2021/07/31 05:51:04;;;;;;;1.30;1.20;;;17.70;98.00;;;;;;5094423;28;20524;-66
2021/07/31 05:53:31;;;;;;;1.40;1.40;;;17.70;98.00;;;;;;5094345;28;20463;-66
2021/07/31 05:55:59;;;;;;;1.40;1.33;;;17.80;98.00;;;;;;5094182;28;20973;-67
2021/07/31 05:58:28;;;;;;;1.20;1.10;;;18.00;98.00;;;;;;5076406;28;20501;-68
2021/07/31 06:00:55;;;;;;;1.63;1.20;;;18.20;98.00;;;;;;5094242;28;20495;-67
2021/07/31 06:03:22;;;;;;;1.20;1.20;;;18.30;98.00;;;;;;5076598;28;20495;-68
2021/07/31 06:05:49;;;;;;;1.30;1.27;;;18.50;98.00;;;;;;5094807;28;20494;-66
2021/07/31 06:08:17;;;;;;;1.77;1.33;;;18.60;98.00;;;;;;5094428;28;20480;-69
2021/07/31 06:10:44;;;;;;;1.20;1.00;;;18.80;98.00;;;;;;5094277;28;20483;-66
2021/07/31 06:13:11;;;;;;;1.20;1.03;;;18.90;98.00;;;;;;5094198;28;20534;-68
2021/07/31 06:15:42;;;;;;;1.40;1.20;;;19.00;98.00;;;;;;5095050;28;20970;-67
2021/07/31 06:18:09;;;;;;;1.50;1.33;;;19.10;98.00;;;;;;5094640;28;20464;-67
2021/07/31 06:20:36;;;;;;;1.20;1.10;;;19.30;98.00;;;;;;5093808;28;20463;-67
2021/07/31 06:23:03;;;;;;;1.30;1.30;;;19.40;98.00;;;;;;5094902;28;20452;-68
2021/07/31 06:25:30;;;;;;;1.50;1.20;;;19.40;98.00;;;;;;5094091;28;20494;-67
2021/07/31 06:27:57;;;;;;;1.40;1.23;;;19.40;98.00;;;;;;5093515;28;20512;-68
2021/07/31 06:30:27;;;;;;;1.60;1.30;;;19.50;98.00;;;;;;5093681;28;20505;-69
2021/07/31 06:32:56;;;;;;;1.20;1.10;;;19.50;98.00;;;;;;5093789;28;20517;-68
2021/07/31 06:35:23;;;;;;;1.20;1.10;;;19.60;98.00;;;;;;5093628;28;20492;-66
2021/07/31 06:37:51;;;;;;;1.40;1.23;;;19.80;98.00;;;;;;5093576;28;20478;-69
2021/07/31 06:40:19;;;;;;;1.30;1.20;;;19.90;98.00;;;;;;5093447;28;20456;-67
2021/07/31 06:42:45;;;;;;;1.60;1.30;;;20.00;98.00;;;;;;5058903;28;20494;-68
2021/07/31 06:45:12;;;;;;;1.50;1.47;;;20.10;98.00;;;;;;5093308;28;20491;-67
2021/07/31 06:47:40;;;;;;;1.30;1.20;;;20.10;98.00;;;;;;5093174;28;20483;-68
2021/07/31 06:50:10;;;;;;;1.20;1.20;;;20.20;98.00;;;;;;5093364;28;20463;-69
2021/07/31 06:52:38;;;;;;;1.20;1.10;;;20.10;98.00;;;;;;5093196;28;20459;-68
2021/07/31 06:55:05;;;;;;;1.30;1.23;;;20.10;98.00;;;;;;5093214;28;20965;-68
2021/07/31 06:57:32;;;;;;;1.20;1.00;;;20.30;98.00;;;;;;5093132;28;20455;-68
2021/07/31 06:59:59;;;;;;;1.30;1.17;;;20.20;98.00;;;;;;5092208;28;20456;-69
2021/07/31 07:02:26;;;;;;;1.20;1.10;;;20.10;98.00;;;;;;5093174;28;20456;-69
2021/07/31 07:04:53;;;;;;;1.20;1.10;;;20.10;98.00;;;;;;5092818;28;20509;-68
2021/07/31 07:07:22;;;;;;;1.20;1.20;;;20.00;98.00;;;;;;5092911;28;20515;-69
2021/07/31 07:09:49;;;;;;;1.40;1.30;;;20.10;98.00;;;;;;5091240;28;20453;-69
2021/07/31 07:12:16;;;;;;;1.20;1.10;;;20.10;98.00;;;;;;5089923;28;20492;-68
2021/07/31 07:14:43;;;;;;;14.33;1.50;;;20.10;98.00;;;;;;5089860;28;20837;-67
2021/07/31 07:17:10;;;;;;;1.50;1.17;;;20.20;98.00;;;;;;5089823;28;20490;-67
2021/07/31 07:19:36;;;;;;;1.20;1.10;;;20.40;98.00;;;;;;5089680;28;20725;-68
2021/07/31 07:22:04;;;;;;;1.20;1.10;;;20.50;98.00;;;;;;5089739;28;20525;-67
2021/07/31 07:24:35;;;;;;;1.70;1.30;;;20.60;98.00;;;;;;5089454;28;20484;-67
2021/07/31 07:27:02;;;;;;;1.30;1.13;;;20.70;97.50;;;;;;5089869;28;20464;-66
2021/07/31 07:29:29;;;;;;;1.40;1.20;;;20.70;97.80;;;;;;5089673;28;20503;-68
2021/07/31 07:31:56;;;;;;;1.30;1.10;;;20.70;98.00;;;;;;5090088;28;20456;-66
2021/07/31 07:34:23;;;;;;;1.23;1.20;;;20.80;98.00;;;;;;5089364;28;20499;-66
2021/07/31 07:36:50;;;;;;;1.50;1.40;;;21.00;95.50;;;;;;5089458;28;20471;-66
2021/07/31 07:39:17;;;;;;;1.20;1.10;;;21.00;95.90;;;;;;5089353;28;20466;-67
2021/07/31 07:41:46;;;;;;;1.87;1.10;;;21.00;94.20;;;;;;5089575;28;20506;-68
2021/07/31 07:44:15;;;;;;;1.30;1.10;;;21.00;95.80;;;;;;5089612;28;20484;-67
2021/07/31 07:46:42;;;;;;;1.20;1.00;;;20.90;97.30;;;;;;5088750;28;20455;-68
2021/07/31 07:49:09;;;;;;;1.20;1.10;;;21.00;95.60;;;;;;5088494;28;21684;-69
2021/07/31 07:51:39;;;;;;;1.20;1.10;;;21.10;94.80;;;;;;5088563;28;20459;-68
2021/07/31 07:54:06;;;;;;;1.93;1.20;;;21.10;94.50;;;;;;5090567;28;20944;-68
2021/07/31 07:56:33;;;;;;;1.30;1.17;;;21.20;95.30;;;;;;5091932;28;20874;-68
2021/07/31 07:59:01;;;;;;;1.83;1.60;;;21.30;95.10;;;;;;5091558;28;20514;-69
2021/07/31 08:01:29;;;;;;;1.40;1.20;;;21.40;94.30;;;;;;5091670;28;20540;-67
2021/07/31 08:03:57;;;;;;;2.27;1.40;;;21.40;94.30;;;;;;5091459;28;20456;-68
2021/07/31 08:06:24;;;;;;;1.30;1.10;;;21.40;94.10;;;;;;5090492;28;20822;-68
2021/07/31 08:08:50;;;;;;;1.30;1.20;;;21.30;95.50;;;;;;5091509;28;20507;-68
2021/07/31 08:11:17;;;;;;;1.20;1.10;;;21.30;95.30;;;;;;5091786;28;20890;-70
2021/07/31 08:13:44;;;;;;;1.30;1.20;;;21.40;94.40;;;;;;5091851;28;20958;-67
2021/07/31 08:16:13;;;;;;;1.50;1.20;;;21.30;95.10;;;;;;5091644;28;20452;-68
2021/07/31 08:18:40;;;;;;;1.23;1.17;;;21.40;94.20;;;;;;5091696;28;20749;-67
2021/07/31 08:21:07;;;;;;;1.70;1.40;;;21.60;95.10;;;;;;5091324;28;20464;-67
2021/07/31 08:23:34;;;;;;;1.30;1.30;;;21.90;94.40;;;;;;5091428;28;20513;-69
2021/07/31 08:26:02;;;;;;;1.30;1.30;;;22.10;93.20;;;;;;5073609;28;20507;-68
2021/07/31 08:28:30;;;;;;;1.20;1.10;;;22.10;90.50;;;;;;5091454;28;20498;-70
2021/07/31 08:30:57;;;;;;;1.63;1.37;;;22.00;90.70;;;;;;5091425;28;20509;-68
2021/07/31 08:33:25;;;;;;;1.20;1.10;;;21.80;91.70;;;;;;5091460;28;20452;-69
2021/07/31 08:35:52;;;;;;;1.40;1.30;;;21.80;91.20;;;;;;5091532;28;20462;-67
2021/07/31 08:38:20;;;;;;;1.57;1.20;;;21.60;93.00;;;;;;5091333;28;20514;-68
2021/07/31 08:40:47;;;;;;;1.20;1.10;;;21.50;93.90;;;;;;5091373;28;20452;-68
2021/07/31 08:43:14;;;;;;;1.40;1.20;;;21.60;91.90;;;;;;5073295;28;20556;-68
2021/07/31 08:45:41;;;;;;;2.00;1.70;;;21.60;93.80;;;;;;5091528;28;20495;-68
2021/07/31 08:48:09;;;;;;;1.40;1.30;;;21.60;92.70;;;;;;5091478;28;20529;-68
2021/07/31 08:50:39;;;;;;;1.20;1.10;;;21.60;94.10;;;;;;5091242;28;20520;-69
2021/07/31 08:53:07;;;;;;;1.30;1.20;;;21.60;92.70;;;;;;5091227;28;20809;-70
2021/07/31 08:55:34;;;;;;;1.20;1.10;;;21.90;94.40;;;;;;5091129;28;20542;-68
2021/07/31 08:58:01;;;;;;;1.40;1.30;;;22.10;89.40;;;;;;5091219;28;20940;-69
2021/07/31 09:00:28;;;;;;;1.20;1.20;;;22.10;89.90;;;;;;5090993;28;20456;-69
2021/07/31 09:02:55;;;;;;;1.30;1.20;;;22.10;88.80;;;;;;5091033;28;20833;-67
2021/07/31 09:05:33;;;;;;;1.30;1.20;;;22.00;89.60;;;;;;5090955;28;20517;-70
2021/07/31 09:08:03;;;;;;;1.20;1.10;;;22.00;89.70;;;;;;5073180;28;20931;-70
2021/07/31 09:10:31;;;;;;;1.30;1.17;;;22.00;90.30;;;;;;5090739;28;20509;-67
2021/07/31 09:13:09;;;;;;;1.67;1.37;;;21.90;89.80;;;;;;5090875;28;20890;-67
2021/07/31 09:15:39;;;;;;;1.40;1.20;;;22.00;91.70;;;;;;5090324;28;20461;-67
2021/07/31 09:18:24;;;;;;;1.60;1.17;;;22.10;87.00;;;;;;5090810;28;20495;-69
2021/07/31 09:21:07;;;;;;;1.47;1.33;;;22.10;88.40;;;;;;5090180;28;20969;-68
2021/07/31 09:23:52;;;;;;;1.20;1.10;;;22.20;87.70;;;;;;5092391;28;20465;-67
2021/07/31 09:26:22;;;;;;;1.40;1.10;;;22.30;90.00;;;;;;5095131;28;20593;-67
2021/07/31 09:29:00;;;;;;;1.20;1.13;;;22.50;89.70;;;;;;5095556;28;20483;-69
2021/07/31 09:31:28;;;;;;;1.83;1.40;;;22.70;89.90;;;;;;5095198;28;20487;-68
2021/07/31 09:34:02;;;;;;;1.30;1.20;;;22.40;86.40;;;;;;5094632;28;20521;-66
2021/07/31 09:36:38;;;;;;;1.50;1.30;;;22.40;92.90;;;;;;5076314;28;20516;-67
2021/07/31 09:39:07;;;;;;;1.20;1.10;;;22.60;89.00;;;;;;5095385;28;20455;-66
2021/07/31 09:41:37;;;;;;;1.20;1.10;;;22.90;91.70;;;;;;5095126;28;20451;-69
2021/07/31 09:44:07;;;;;;;1.53;1.13;;;23.10;89.20;;;;;;5095455;28;20462;-67
2021/07/31 09:46:36;;;;;;;1.27;1.23;;;23.40;88.10;;;;;;5095337;28;20488;-67
2021/07/31 09:49:05;;;;;;;1.40;1.20;;;23.60;85.90;;;;;;5095107;28;20512;-66
2021/07/31 09:51:34;;;;;;;1.53;1.30;;;23.80;90.30;;;;;;5077218;28;20484;-66
2021/07/31 09:54:02;;;;;;;1.37;1.37;;;24.00;85.10;;;;;;5094919;28;20459;-67
2021/07/31 09:56:32;;;;;;;1.33;1.20;;;24.00;84.60;;;;;;5077099;28;20456;-69
2021/07/31 09:59:01;;;;;;;1.77;1.27;;;23.80;84.40;;;;;;5094886;28;20459;-66
2021/07/31 10:01:29;;;;;;;1.20;1.10;;;23.70;85.90;;;;;;5094999;28;21002;-67
2021/07/31 10:03:57;;;;;;;1.20;1.13;;;23.60;85.80;;;;;;5094960;28;20448;-67
2021/07/31 10:06:27;;;;;;;1.43;1.30;;;23.60;85.30;;;;;;5076640;28;20456;-67
2021/07/31 10:08:54;;;;;;;1.30;1.20;;;23.70;86.10;;;;;;5076523;28;20486;-67
2021/07/31 10:11:21;;;;;;;1.50;1.40;;;23.80;84.80;;;;;;5075765;28;21009;-66
2021/07/31 10:13:50;;;;;;;1.30;1.30;;;23.80;84.00;;;;;;5093362;28;20741;-67
2021/07/31 10:16:18;;;;;;;1.20;1.10;;;23.80;85.00;;;;;;5075827;28;20873;-67
2021/07/31 10:19:02;;;;;;;1.43;1.23;;;23.70;85.60;;;;;;5093790;28;21024;-67
2021/07/31 10:21:31;;;;;;;1.40;1.33;;;23.70;86.80;;;;;;5093360;28;20470;-69
2021/07/31 10:24:06;;;;;;;1.20;1.20;;;23.80;85.40;;;;;;5093670;28;20480;-67
2021/07/31 10:26:34;;;;;;;1.20;1.10;;;23.90;86.70;;;;;;5093645;28;20950;-69
2021/07/31 10:29:39;;;;;;;1.40;1.40;;;24.20;85.10;;;;;;5093919;28;20824;-68
2021/07/31 10:32:55;;;;;;;1.60;1.20;;;24.00;82.70;;;;;;5093649;28;20467;-68
2021/07/31 10:35:38;;;;;;;1.50;1.30;;;24.30;84.60;;;;;;5092209;28;20452;-66
2021/07/31 10:38:10;;;;;;;2.07;1.60;;;24.40;83.80;;;;;;5075730;28;20860;-67
2021/07/31 10:40:56;;;;;;;1.30;1.30;;;24.50;84.70;;;;;;5093565;28;20942;-68
2021/07/31 10:43:27;;;;;;;1.33;1.30;;;24.60;85.40;;;;;;5093307;28;20954;-65
2021/07/31 10:46:21;;;;;;;2.13;1.40;;;24.60;84.90;;;;;;5093213;28;20460;-68
2021/07/31 10:48:49;;;;;;;1.20;1.10;;;24.60;83.10;;;;;;5093272;28;20484;-66
2021/07/31 10:51:43;;;;;;;1.27;1.13;;;24.70;84.90;;;;;;5093062;28;20544;-67
2021/07/31 10:54:14;;;;;;;1.50;1.40;;;25.00;84.10;;;;;;5093153;28;20460;-67
2021/07/31 10:56:58;;;;;;;1.50;1.37;;;25.00;81.80;;;;;;5093104;28;20494;-67
2021/07/31 10:59:27;;;;;;;1.30;1.30;;;24.80;84.50;;;;;;5093034;28;20463;-67
2021/07/31 11:02:32;;;;;;;1.30;1.30;;;25.10;84.10;;;;;;5075292;28;20452;-70
2021/07/31 11:05:01;;;;;;;1.20;1.20;;;25.10;84.40;;;;;;5092922;28;20456;-67
2021/07/31 11:07:29;;;;;;;1.50;1.37;;;25.00;81.80;;;;;;5093079;28;21000;-66
2021/07/31 11:10:31;;;;;;;1.47;1.30;;;25.00;80.20;;;;;;5093229;28;20483;-66
2021/07/31 11:12:58;;;;;;;1.70;1.60;;;25.20;81.70;;;;;;5092883;28;20460;-67
2021/07/31 11:15:28;;;;;;;1.30;1.20;;;25.40;81.70;;;;;;5093005;28;20505;-66
2021/07/31 11:17:57;;;;;;;1.30;1.23;;;25.80;82.00;;;;;;5092327;28;20456;-67
2021/07/31 11:20:31;;;;;;;1.53;1.40;;;25.70;80.10;;;;;;5092637;28;20463;-66
2021/07/31 11:23:03;;;;;;;1.50;1.30;;;25.40;80.20;;;;;;5092976;28;20946;-66
2021/07/31 11:25:31;;;;;;;1.40;1.20;;;25.30;82.40;;;;;;5074815;28;20463;-67
2021/07/31 11:28:04;;;;;;;1.30;1.30;;;25.10;81.50;;;;;;5074823;28;20484;-67
2021/07/31 11:30:39;;;;;;;1.30;1.30;;;24.80;82.20;;;;;;5092373;28;20541;-67
2021/07/31 11:33:29;;;;;;;1.30;1.20;;;24.90;81.70;;;;;;5092436;28;20465;-66
2021/07/31 11:35:58;;;;;;;1.20;1.10;;;25.10;81.10;;;;;;5092311;28;20962;-66
2021/07/31 11:38:36;;;;;;;2.97;1.37;;;25.20;81.90;;;;;;5092381;28;20552;-67
2021/07/31 11:41:08;;;;;;;2.07;1.60;;;25.00;82.00;;;;;;5092371;28;20869;-67
2021/07/31 11:43:50;;;;;;;1.20;1.10;;;25.00;80.60;;;;;;5092291;28;20517;-68
2021/07/31 11:46:37;;;;;;;1.87;1.40;;;25.00;81.30;;;;;;5091941;28;20495;-68
2021/07/31 11:49:06;;;;;;;1.57;1.27;;;24.90;83.30;;;;;;5092000;28;20540;-67
2021/07/31 11:51:42;;;;;;;1.37;1.23;;;24.70;80.40;;;;;;5092336;28;20486;-68
2021/07/31 11:54:09;;;;;;;1.20;1.10;;;24.80;80.70;;;;;;5092114;28;20455;-66
2021/07/31 11:56:38;;;;;;;1.33;1.30;;;25.00;80.50;;;;;;5092023;28;20456;-67
2021/07/31 11:59:06;;;;;;;1.50;1.30;;;25.20;80.20;;;;;;5091909;28;20538;-69
2021/07/31 12:01:34;;;;;;;1.40;1.33;;;25.30;79.40;;;;;;5091889;28;20452;-67
2021/07/31 12:04:02;;;;;;;1.43;1.40;;;25.60;80.30;;;;;;5092003;28;20487;-67
2021/07/31 12:06:41;;;;;;;2.47;1.70;;;25.70;79.10;;;;;;5091410;28;20912;-69
2021/07/31 12:09:29;;;;;;;1.87;1.50;;;26.10;77.60;;;;;;5091617;28;20480;-68
2021/07/31 12:11:57;;;;;;;1.57;1.30;;;26.50;77.70;;;;;;5090585;28;20459;-69
2021/07/31 12:14:35;;;;;;;1.90;1.33;;;26.90;77.80;;;;;;5091486;28;20460;-67
2021/07/31 12:17:19;;;;;;;1.40;1.40;;;26.80;74.80;;;;;;5091672;28;20452;-68
2021/07/31 12:19:48;;;;;;;1.67;1.50;;;26.30;77.00;;;;;;5091433;28;20476;-67
2021/07/31 12:22:18;;;;;;;1.30;1.30;;;26.10;77.80;;;;;;5091426;28;20456;-67
2021/07/31 12:24:47;;;;;;;2.07;1.70;;;26.20;77.70;;;;;;5091382;28;20491;-68
2021/07/31 12:27:16;;;;;;;3.87;1.40;;;26.10;79.90;;;;;;5091477;28;20448;-67
2021/07/31 12:29:43;;;;;;;1.30;1.23;;;25.90;80.30;;;;;;5091086;28;20515;-66
2021/07/31 12:32:21;;;;;;;1.67;1.37;;;25.80;78.60;;;;;;5091322;28;20455;-68
2021/07/31 12:34:49;;;;;;;1.50;1.20;;;25.80;80.50;;;;;;5073440;28;20775;-68
2021/07/31 12:37:17;;;;;;;1.70;1.30;;;26.20;77.20;;;;;;5091355;28;21031;-67
2021/07/31 12:39:44;;;;;;;1.60;1.40;;;26.10;78.00;;;;;;5091466;28;20475;-67
2021/07/31 12:42:11;;;;;;;1.27;1.20;;;26.30;78.70;;;;;;5091671;28;20460;-68
2021/07/31 12:44:39;;;;;;;1.83;1.30;;;26.70;77.10;;;;;;5091164;28;21162;-67
2021/07/31 12:47:07;;;;;;;2.60;1.50;;;27.00;76.90;;;;;;5091314;28;20555;-67
2021/07/31 12:49:34;;;;;;;1.60;1.40;;;27.20;74.70;;;;;;5090981;28;21039;-68
2021/07/31 12:52:02;;;;;;;1.40;1.20;;;27.30;75.50;;;;;;5091232;28;21005;-67
2021/07/31 12:54:31;;;;;;;1.20;1.20;;;27.60;76.80;;;;;;5090993;28;20463;-66
2021/07/31 12:56:57;;;;;;;2.47;1.33;;;27.50;74.80;;;;;;5090785;28;20513;-68
2021/07/31 12:59:25;;;;;;;1.70;1.40;;;27.60;74.70;;;;;;5090532;28;20448;-69